EFW657G EGKK-LIPX
Flight info
| Callsign | EFW657G |
|---|---|
| Flight time | 1h 37m |
| Altitude | 35000 |
| Route | ODVIK Y311 DVR UL9 KONAN DCT KOK DCT CIV DCT SUTAL DCT GTQ DCT DEVDI DCT ODINA DCT LEGLO DCT OSKOR L615 NEVNI |
| Aircraft | A321/M-SDE3FGHIRWY/LB1 |
Departure
| Time | 2026-05-05 17:12 |
|---|---|
| Airport | London Gatwick Airport (EGKK) |
Arrival
| Time | 2026-05-05 18:49 |
|---|---|
| Airport | Verona Villafranca Valerio Catullo Airport (LIPX) |
| Time | Latitude | Longitude | Altitude | Speed | Heading |
|---|---|---|---|---|---|
| 2026-05-05 16:50 | 51.15823 | -0.16953 | 200 ft | 0 kts | 88° |
| 2026-05-05 17:01 | 51.15822 | -0.16975 | 200 ft | 2 kts | 88° |
| 2026-05-05 17:01 | 51.15821 | -0.16999 | 200 ft | 2 kts | 88° |
| 2026-05-05 17:02 | 51.15821 | -0.17022 | 200 ft | 2 kts | 88° |
| 2026-05-05 17:02 | 51.15820 | -0.17046 | 200 ft | 2 kts | 90° |
| 2026-05-05 17:02 | 51.15825 | -0.17069 | 200 ft | 2 kts | 130° |
| 2026-05-05 17:02 | 51.15837 | -0.17084 | 200 ft | 2 kts | 161° |
| 2026-05-05 17:03 | 51.15852 | -0.17086 | 200 ft | 2 kts | 193° |
| 2026-05-05 17:03 | 51.15866 | -0.17078 | 200 ft | 2 kts | 203° |
| 2026-05-05 17:03 | 51.15873 | -0.17073 | 200 ft | 0 kts | 199° |
| 2026-05-05 17:05 | 51.15871 | -0.17075 | 200 ft | 2 kts | 198° |
| 2026-05-05 17:05 | 51.15825 | -0.17113 | 200 ft | 12 kts | 230° |
| 2026-05-05 17:05 | 51.15791 | -0.17293 | 200 ft | 20 kts | 258° |
| 2026-05-05 17:05 | 51.15758 | -0.17537 | 200 ft | 24 kts | 258° |
| 2026-05-05 17:06 | 51.15723 | -0.17790 | 200 ft | 20 kts | 257° |
| 2026-05-05 17:06 | 51.15695 | -0.17998 | 200 ft | 18 kts | 258° |
| 2026-05-05 17:06 | 51.15668 | -0.18198 | 200 ft | 18 kts | 258° |
| 2026-05-05 17:06 | 51.15639 | -0.18402 | 200 ft | 18 kts | 257° |
| 2026-05-05 17:07 | 51.15612 | -0.18599 | 200 ft | 17 kts | 257° |
| 2026-05-05 17:07 | 51.15580 | -0.18785 | 200 ft | 17 kts | 234° |
| 2026-05-05 17:07 | 51.15469 | -0.18798 | 200 ft | 17 kts | 167° |
| 2026-05-05 17:07 | 51.15350 | -0.18756 | 200 ft | 17 kts | 168° |
| 2026-05-05 17:08 | 51.15235 | -0.18715 | 200 ft | 14 kts | 167° |
| 2026-05-05 17:08 | 51.15159 | -0.18701 | 200 ft | 11 kts | 196° |
| 2026-05-05 17:08 | 51.15116 | -0.18837 | 200 ft | 17 kts | 258° |
| 2026-05-05 17:08 | 51.15085 | -0.19065 | 200 ft | 24 kts | 258° |
| 2026-05-05 17:09 | 51.15049 | -0.19325 | 200 ft | 23 kts | 258° |
| 2026-05-05 17:09 | 51.15014 | -0.19583 | 200 ft | 24 kts | 258° |
| 2026-05-05 17:09 | 51.14978 | -0.19838 | 200 ft | 23 kts | 257° |
| 2026-05-05 17:09 | 51.14941 | -0.20098 | 200 ft | 25 kts | 258° |
| 2026-05-05 17:10 | 51.14902 | -0.20379 | 200 ft | 25 kts | 258° |
| 2026-05-05 17:10 | 51.14867 | -0.20649 | 200 ft | 24 kts | 258° |
| 2026-05-05 17:10 | 51.14834 | -0.20887 | 200 ft | 20 kts | 258° |
| 2026-05-05 17:10 | 51.14803 | -0.21107 | 200 ft | 19 kts | 253° |
| 2026-05-05 17:11 | 51.14768 | -0.21297 | 200 ft | 19 kts | 258° |
| 2026-05-05 17:11 | 51.14701 | -0.21398 | 200 ft | 16 kts | 166° |
| 2026-05-05 17:11 | 51.14600 | -0.21320 | 200 ft | 15 kts | 162° |
| 2026-05-05 17:11 | 51.14519 | -0.21221 | 200 ft | 16 kts | 104° |
| 2026-05-05 17:12 | 51.14553 | -0.20927 | 200 ft | 54 kts | 77° |
| 2026-05-05 17:12 | 51.14687 | -0.19969 | 200 ft | 120 kts | 78° |
| 2026-05-05 17:12 | 51.14904 | -0.18392 | 233 ft | 169 kts | 78° |
| 2026-05-05 17:12 | 51.15163 | -0.16568 | 820 ft | 171 kts | 76° |
| 2026-05-05 17:13 | 51.15416 | -0.14727 | 1482 ft | 172 kts | 76° |
| 2026-05-05 17:13 | 51.15665 | -0.12888 | 2056 ft | 171 kts | 75° |
| 2026-05-05 17:13 | 51.15930 | -0.10981 | 2297 ft | 182 kts | 75° |
| 2026-05-05 17:13 | 51.16215 | -0.08939 | 2541 ft | 194 kts | 75° |
| 2026-05-05 17:14 | 51.16521 | -0.06750 | 2751 ft | 211 kts | 75° |
| 2026-05-05 17:14 | 51.16792 | -0.04390 | 3038 ft | 227 kts | 81° |
| 2026-05-05 17:14 | 51.16882 | -0.01808 | 3331 ft | 244 kts | 88° |
| 2026-05-05 17:14 | 51.16844 | 0.01000 | 3706 ft | 257 kts | 89° |
| 2026-05-05 17:15 | 51.16784 | 0.03832 | 4308 ft | 261 kts | 89° |
| 2026-05-05 17:15 | 51.16723 | 0.06729 | 4962 ft | 263 kts | 89° |
| 2026-05-05 17:15 | 51.16665 | 0.09640 | 5599 ft | 266 kts | 89° |
| 2026-05-05 17:15 | 51.16609 | 0.12584 | 6221 ft | 270 kts | 89° |
| 2026-05-05 17:16 | 51.16554 | 0.15555 | 6856 ft | 273 kts | 89° |
| 2026-05-05 17:16 | 51.16546 | 0.18569 | 7513 ft | 275 kts | 87° |
| 2026-05-05 17:16 | 51.16560 | 0.21606 | 8146 ft | 278 kts | 88° |
| 2026-05-05 17:16 | 51.16575 | 0.24707 | 8789 ft | 281 kts | 88° |
| 2026-05-05 17:17 | 51.16584 | 0.27825 | 9419 ft | 283 kts | 88° |
| 2026-05-05 17:17 | 51.16590 | 0.30963 | 9998 ft | 287 kts | 88° |
| 2026-05-05 17:17 | 51.16593 | 0.34123 | 10585 ft | 289 kts | 88° |
| 2026-05-05 17:17 | 51.16595 | 0.37335 | 11226 ft | 291 kts | 88° |
| 2026-05-05 17:18 | 51.16596 | 0.40554 | 11807 ft | 293 kts | 88° |
| 2026-05-05 17:18 | 51.16597 | 0.43785 | 12358 ft | 295 kts | 88° |
| 2026-05-05 17:18 | 51.16597 | 0.47039 | 12898 ft | 297 kts | 88° |
| 2026-05-05 17:18 | 51.16597 | 0.50325 | 13413 ft | 300 kts | 88° |
| 2026-05-05 17:19 | 51.16597 | 0.53703 | 13652 ft | 313 kts | 88° |
| 2026-05-05 17:19 | 51.16595 | 0.57240 | 13884 ft | 326 kts | 88° |
| 2026-05-05 17:19 | 51.16592 | 0.60961 | 14122 ft | 338 kts | 89° |
| 2026-05-05 17:19 | 51.16588 | 0.64751 | 14342 ft | 350 kts | 89° |
| 2026-05-05 17:20 | 51.16581 | 0.68672 | 14643 ft | 359 kts | 89° |
| 2026-05-05 17:20 | 51.16572 | 0.72645 | 15112 ft | 362 kts | 89° |
| 2026-05-05 17:20 | 51.16562 | 0.76675 | 15627 ft | 365 kts | 89° |
| 2026-05-05 17:20 | 51.16550 | 0.80697 | 16139 ft | 367 kts | 89° |
| 2026-05-05 17:21 | 51.16538 | 0.84751 | 16612 ft | 370 kts | 90° |
| 2026-05-05 17:21 | 51.16524 | 0.88877 | 17077 ft | 373 kts | 90° |
| 2026-05-05 17:21 | 51.16509 | 0.92984 | 17508 ft | 376 kts | 90° |
| 2026-05-05 17:22 | 51.16473 | 1.01513 | 18427 ft | 382 kts | 90° |
| 2026-05-05 17:22 | 51.16452 | 1.05705 | 18859 ft | 385 kts | 90° |
| 2026-05-05 17:22 | 51.16430 | 1.09949 | 19284 ft | 387 kts | 90° |
| 2026-05-05 17:22 | 51.16406 | 1.14274 | 19685 ft | 390 kts | 89° |
| 2026-05-05 17:23 | 51.16381 | 1.18579 | 20096 ft | 392 kts | 89° |
| 2026-05-05 17:23 | 51.16355 | 1.22921 | 20495 ft | 395 kts | 90° |
| 2026-05-05 17:23 | 51.16326 | 1.27281 | 20874 ft | 398 kts | 90° |
| 2026-05-05 17:23 | 51.16295 | 1.31677 | 21249 ft | 400 kts | 90° |
| 2026-05-05 17:24 | 51.16235 | 1.36135 | 21620 ft | 403 kts | 92° |
| 2026-05-05 17:24 | 51.16051 | 1.40584 | 21974 ft | 405 kts | 93° |
| 2026-05-05 17:24 | 51.15839 | 1.45044 | 22322 ft | 407 kts | 93° |
| 2026-05-05 17:24 | 51.15621 | 1.49520 | 22681 ft | 409 kts | 93° |
| 2026-05-05 17:25 | 51.15400 | 1.54035 | 23013 ft | 412 kts | 93° |
| 2026-05-05 17:25 | 51.15250 | 1.57094 | 23232 ft | 413 kts | 93° |
| 2026-05-05 17:25 | 51.14951 | 1.63167 | 23650 ft | 416 kts | 93° |
| 2026-05-05 17:25 | 51.14726 | 1.67720 | 23964 ft | 418 kts | 94° |
| 2026-05-05 17:26 | 51.14497 | 1.72320 | 24290 ft | 420 kts | 94° |
| 2026-05-05 17:26 | 51.14263 | 1.77001 | 24644 ft | 421 kts | 95° |
| 2026-05-05 17:26 | 51.14028 | 1.81656 | 24956 ft | 423 kts | 95° |
| 2026-05-05 17:26 | 51.13791 | 1.86305 | 25274 ft | 424 kts | 95° |
| 2026-05-05 17:27 | 51.13552 | 1.90939 | 25590 ft | 425 kts | 95° |
| 2026-05-05 17:27 | 51.13308 | 1.95615 | 25902 ft | 427 kts | 95° |
| 2026-05-05 17:27 | 51.13061 | 2.00319 | 26208 ft | 428 kts | 96° |
| 2026-05-05 17:27 | 51.12811 | 2.05068 | 26520 ft | 429 kts | 96° |
| 2026-05-05 17:28 | 51.12563 | 2.09729 | 26801 ft | 430 kts | 96° |
| 2026-05-05 17:28 | 51.12307 | 2.14495 | 27074 ft | 432 kts | 96° |
| 2026-05-05 17:28 | 51.12051 | 2.19238 | 27341 ft | 433 kts | 96° |
| 2026-05-05 17:28 | 51.11790 | 2.24042 | 27588 ft | 435 kts | 96° |
| 2026-05-05 17:29 | 51.11530 | 2.28796 | 27828 ft | 436 kts | 96° |
| 2026-05-05 17:29 | 51.11265 | 2.33620 | 28092 ft | 437 kts | 96° |
| 2026-05-05 17:29 | 51.11001 | 2.38374 | 28361 ft | 438 kts | 96° |
| 2026-05-05 17:29 | 51.10733 | 2.43181 | 28610 ft | 439 kts | 96° |
| 2026-05-05 17:30 | 51.10459 | 2.48026 | 28835 ft | 440 kts | 97° |
| 2026-05-05 17:30 | 51.10183 | 2.52866 | 29107 ft | 440 kts | 97° |
| 2026-05-05 17:30 | 51.09843 | 2.57674 | 29440 ft | 438 kts | 101° |
| 2026-05-05 17:30 | 51.09177 | 2.62327 | 29760 ft | 434 kts | 108° |
| 2026-05-05 17:31 | 51.08160 | 2.66825 | 30056 ft | 431 kts | 116° |
| 2026-05-05 17:31 | 51.06830 | 2.71041 | 30328 ft | 429 kts | 122° |
| 2026-05-05 17:31 | 51.05210 | 2.75034 | 30631 ft | 426 kts | 126° |
| 2026-05-05 17:31 | 51.03547 | 2.78883 | 30929 ft | 425 kts | 127° |
| 2026-05-05 17:32 | 51.01879 | 2.82701 | 31186 ft | 424 kts | 126° |
| 2026-05-05 17:32 | 51.00203 | 2.86538 | 31417 ft | 424 kts | 126° |
| 2026-05-05 17:32 | 50.98517 | 2.90399 | 31641 ft | 424 kts | 126° |
| 2026-05-05 17:32 | 50.96835 | 2.94250 | 31870 ft | 424 kts | 126° |
| 2026-05-05 17:33 | 50.95170 | 2.98065 | 32098 ft | 423 kts | 126° |
| 2026-05-05 17:33 | 50.93495 | 3.01896 | 32337 ft | 422 kts | 126° |
| 2026-05-05 17:33 | 50.91833 | 3.05694 | 32557 ft | 422 kts | 126° |
| 2026-05-05 17:33 | 50.90176 | 3.09479 | 32772 ft | 422 kts | 126° |
| 2026-05-05 17:34 | 50.88508 | 3.13280 | 32982 ft | 421 kts | 126° |
| 2026-05-05 17:34 | 50.86833 | 3.17092 | 33173 ft | 421 kts | 126° |
| 2026-05-05 17:34 | 50.85173 | 3.20866 | 33332 ft | 422 kts | 126° |
| 2026-05-05 17:34 | 50.83479 | 3.24713 | 33473 ft | 423 kts | 126° |
| 2026-05-05 17:35 | 50.81796 | 3.28528 | 33621 ft | 424 kts | 126° |
| 2026-05-05 17:35 | 50.80133 | 3.32290 | 33785 ft | 424 kts | 126° |
| 2026-05-05 17:35 | 50.78430 | 3.36140 | 33967 ft | 424 kts | 126° |
| 2026-05-05 17:35 | 50.76767 | 3.39894 | 34127 ft | 424 kts | 126° |
| 2026-05-05 17:36 | 50.75056 | 3.43751 | 34275 ft | 425 kts | 126° |
| 2026-05-05 17:36 | 50.73374 | 3.47539 | 34396 ft | 425 kts | 126° |
| 2026-05-05 17:36 | 50.71687 | 3.51333 | 34533 ft | 426 kts | 126° |
| 2026-05-05 17:36 | 50.69993 | 3.55135 | 34677 ft | 426 kts | 126° |
| 2026-05-05 17:37 | 50.68287 | 3.58958 | 34814 ft | 426 kts | 126° |
| 2026-05-05 17:37 | 50.64876 | 3.66587 | 34837 ft | 427 kts | 127° |
| 2026-05-05 17:38 | 50.61474 | 3.74173 | 34826 ft | 427 kts | 127° |
| 2026-05-05 17:38 | 50.58037 | 3.81811 | 34821 ft | 427 kts | 126° |
| 2026-05-05 17:39 | 50.54784 | 3.89570 | 34820 ft | 426 kts | 124° |
| 2026-05-05 17:39 | 50.51579 | 3.97306 | 34820 ft | 426 kts | 124° |
| 2026-05-05 17:40 | 50.48333 | 4.05123 | 34819 ft | 426 kts | 124° |
| 2026-05-05 17:40 | 50.45106 | 4.12873 | 34820 ft | 426 kts | 124° |
| 2026-05-05 17:41 | 50.41877 | 4.20610 | 34817 ft | 426 kts | 124° |
| 2026-05-05 17:41 | 50.38643 | 4.28337 | 34816 ft | 424 kts | 124° |
| 2026-05-05 17:42 | 50.35433 | 4.35985 | 34817 ft | 424 kts | 124° |
| 2026-05-05 17:42 | 50.32180 | 4.43712 | 34817 ft | 423 kts | 124° |
| 2026-05-05 17:43 | 50.28944 | 4.51375 | 34814 ft | 423 kts | 124° |
| 2026-05-05 17:43 | 50.25708 | 4.59019 | 34809 ft | 423 kts | 124° |
| 2026-05-05 17:44 | 50.22480 | 4.66616 | 34799 ft | 423 kts | 125° |
| 2026-05-05 17:44 | 50.19228 | 4.74249 | 34798 ft | 422 kts | 124° |
| 2026-05-05 17:45 | 50.15993 | 4.81824 | 34799 ft | 422 kts | 124° |
| 2026-05-05 17:45 | 50.12746 | 4.89404 | 34793 ft | 422 kts | 124° |
| 2026-05-05 17:46 | 50.09483 | 4.97001 | 34790 ft | 422 kts | 124° |
| 2026-05-05 17:46 | 50.06230 | 5.04556 | 34797 ft | 422 kts | 124° |
| 2026-05-05 17:47 | 50.02956 | 5.12132 | 34798 ft | 422 kts | 124° |
| 2026-05-05 17:47 | 49.99704 | 5.19640 | 34795 ft | 420 kts | 124° |
| 2026-05-05 17:48 | 49.96442 | 5.27148 | 34782 ft | 420 kts | 124° |
| 2026-05-05 17:48 | 49.93189 | 5.34610 | 34776 ft | 419 kts | 124° |
| 2026-05-05 17:49 | 49.89935 | 5.42054 | 34788 ft | 420 kts | 124° |
| 2026-05-05 17:49 | 49.86665 | 5.49515 | 34776 ft | 421 kts | 124° |
| 2026-05-05 17:50 | 49.83385 | 5.56982 | 34776 ft | 421 kts | 124° |
| 2026-05-05 17:50 | 49.80103 | 5.64427 | 34786 ft | 421 kts | 124° |
| 2026-05-05 17:51 | 49.76803 | 5.71894 | 34766 ft | 421 kts | 125° |
| 2026-05-05 17:51 | 49.73500 | 5.79347 | 34786 ft | 420 kts | 125° |
| 2026-05-05 17:52 | 49.70213 | 5.86747 | 34778 ft | 419 kts | 126° |
| 2026-05-05 17:52 | 49.66909 | 5.94158 | 34790 ft | 418 kts | 126° |
| 2026-05-05 17:53 | 49.63609 | 6.01542 | 34791 ft | 419 kts | 125° |
| 2026-05-05 17:53 | 49.60294 | 6.08940 | 34795 ft | 421 kts | 125° |
| 2026-05-05 17:54 | 49.56965 | 6.16352 | 34786 ft | 422 kts | 125° |
| 2026-05-05 17:54 | 49.53635 | 6.23738 | 34783 ft | 422 kts | 125° |
| 2026-05-05 17:55 | 49.50143 | 6.30980 | 34808 ft | 421 kts | 131° |
| 2026-05-05 17:55 | 49.45988 | 6.37269 | 34780 ft | 422 kts | 140° |
| 2026-05-05 17:56 | 49.41182 | 6.42445 | 34783 ft | 422 kts | 149° |
| 2026-05-05 17:56 | 49.35917 | 6.46407 | 34773 ft | 423 kts | 154° |
| 2026-05-05 17:57 | 49.30582 | 6.50046 | 34773 ft | 424 kts | 155° |
| 2026-05-05 17:57 | 49.25175 | 6.53715 | 34783 ft | 424 kts | 155° |
| 2026-05-05 17:58 | 49.19810 | 6.57347 | 34791 ft | 425 kts | 155° |
| 2026-05-05 17:58 | 49.14434 | 6.60979 | 34779 ft | 425 kts | 155° |
| 2026-05-05 17:59 | 49.09031 | 6.64621 | 34792 ft | 425 kts | 155° |
| 2026-05-05 17:59 | 49.03624 | 6.68259 | 34791 ft | 426 kts | 155° |
| 2026-05-05 18:00 | 48.98183 | 6.71910 | 34809 ft | 427 kts | 155° |
| 2026-05-05 18:00 | 48.92783 | 6.75591 | 34795 ft | 427 kts | 155° |
| 2026-05-05 18:01 | 48.87376 | 6.79285 | 34805 ft | 427 kts | 155° |
| 2026-05-05 18:01 | 48.81974 | 6.82964 | 34806 ft | 426 kts | 156° |
| 2026-05-05 18:02 | 48.76561 | 6.86639 | 34819 ft | 427 kts | 156° |
| 2026-05-05 18:02 | 48.71156 | 6.90303 | 34803 ft | 426 kts | 156° |
| 2026-05-05 18:03 | 48.65743 | 6.93964 | 34803 ft | 427 kts | 156° |
| 2026-05-05 18:03 | 48.60305 | 6.97628 | 34812 ft | 427 kts | 156° |
| 2026-05-05 18:04 | 48.54891 | 7.01269 | 34820 ft | 427 kts | 157° |
| 2026-05-05 18:04 | 48.49486 | 7.04892 | 34823 ft | 427 kts | 157° |
| 2026-05-05 18:05 | 48.44065 | 7.08522 | 34822 ft | 427 kts | 157° |
| 2026-05-05 18:05 | 48.38654 | 7.12139 | 34810 ft | 427 kts | 158° |
| 2026-05-05 18:06 | 48.33248 | 7.15740 | 34828 ft | 428 kts | 158° |
| 2026-05-05 18:06 | 48.27773 | 7.19379 | 34828 ft | 429 kts | 158° |
| 2026-05-05 18:07 | 48.22326 | 7.22992 | 34833 ft | 429 kts | 158° |
| 2026-05-05 18:07 | 48.16890 | 7.26588 | 34819 ft | 430 kts | 158° |
| 2026-05-05 18:08 | 48.11401 | 7.30213 | 34835 ft | 432 kts | 158° |
| 2026-05-05 18:08 | 48.05888 | 7.33844 | 34819 ft | 433 kts | 158° |
| 2026-05-05 18:09 | 48.00389 | 7.37458 | 34833 ft | 434 kts | 158° |
| 2026-05-05 18:09 | 47.94879 | 7.41068 | 34838 ft | 434 kts | 158° |
| 2026-05-05 18:10 | 47.89366 | 7.44677 | 34801 ft | 433 kts | 159° |
| 2026-05-05 18:10 | 47.83865 | 7.48267 | 34837 ft | 433 kts | 159° |
| 2026-05-05 18:11 | 47.78347 | 7.51858 | 34844 ft | 433 kts | 159° |
| 2026-05-05 18:11 | 47.72842 | 7.55455 | 34859 ft | 433 kts | 158° |
| 2026-05-05 18:12 | 47.67407 | 7.59276 | 34862 ft | 434 kts | 157° |
| 2026-05-05 18:12 | 47.61974 | 7.63131 | 34866 ft | 433 kts | 158° |
| 2026-05-05 18:13 | 47.56546 | 7.66957 | 34869 ft | 433 kts | 158° |
| 2026-05-05 18:13 | 47.51116 | 7.70769 | 34867 ft | 433 kts | 159° |
| 2026-05-05 18:14 | 47.45700 | 7.74559 | 34872 ft | 431 kts | 159° |
| 2026-05-05 18:14 | 47.40300 | 7.78328 | 34872 ft | 431 kts | 159° |
| 2026-05-05 18:15 | 47.34895 | 7.82092 | 34874 ft | 431 kts | 159° |
| 2026-05-05 18:15 | 47.29468 | 7.85862 | 34877 ft | 432 kts | 159° |
| 2026-05-05 18:16 | 47.24027 | 7.89633 | 34876 ft | 432 kts | 159° |
| 2026-05-05 18:16 | 47.18623 | 7.93372 | 34872 ft | 432 kts | 160° |
| 2026-05-05 18:17 | 47.13189 | 7.97125 | 34867 ft | 431 kts | 160° |
| 2026-05-05 18:17 | 47.07773 | 8.00846 | 34871 ft | 431 kts | 160° |
| 2026-05-05 18:18 | 47.02319 | 8.04593 | 34869 ft | 431 kts | 160° |
| 2026-05-05 18:18 | 46.96891 | 8.08316 | 34880 ft | 431 kts | 160° |
| 2026-05-05 18:19 | 46.91474 | 8.12022 | 34889 ft | 432 kts | 160° |
| 2026-05-05 18:19 | 46.86053 | 8.15719 | 34893 ft | 431 kts | 160° |
| 2026-05-05 18:20 | 46.80604 | 8.19429 | 34898 ft | 430 kts | 161° |
| 2026-05-05 18:20 | 46.75215 | 8.23090 | 34900 ft | 429 kts | 161° |
| 2026-05-05 18:21 | 46.69826 | 8.26744 | 34912 ft | 429 kts | 161° |
| 2026-05-05 18:21 | 46.64400 | 8.30415 | 34927 ft | 430 kts | 161° |
| 2026-05-05 18:22 | 46.58998 | 8.34056 | 34929 ft | 430 kts | 161° |
| 2026-05-05 18:22 | 46.53576 | 8.37706 | 34941 ft | 430 kts | 161° |
| 2026-05-05 18:23 | 46.48161 | 8.41342 | 34947 ft | 430 kts | 161° |
| 2026-05-05 18:23 | 46.42732 | 8.44983 | 34950 ft | 430 kts | 162° |
| 2026-05-05 18:24 | 46.37322 | 8.48605 | 34949 ft | 431 kts | 162° |
| 2026-05-05 18:24 | 46.31884 | 8.52233 | 34952 ft | 431 kts | 162° |
| 2026-05-05 18:25 | 46.26461 | 8.55847 | 34952 ft | 430 kts | 162° |
| 2026-05-05 18:25 | 46.21041 | 8.59451 | 34958 ft | 430 kts | 162° |
| 2026-05-05 18:26 | 46.15688 | 8.63445 | 34961 ft | 440 kts | 155° |
| 2026-05-05 18:26 | 46.10848 | 8.68880 | 34949 ft | 450 kts | 144° |
| 2026-05-05 18:27 | 46.06723 | 8.75795 | 34951 ft | 464 kts | 133° |
| 2026-05-05 18:27 | 46.03342 | 8.83793 | 34950 ft | 470 kts | 128° |
| 2026-05-05 18:28 | 45.98439 | 8.95992 | 34945 ft | 469 kts | 128° |
| 2026-05-05 18:28 | 45.96824 | 8.99977 | 34803 ft | 465 kts | 128° |
| 2026-05-05 18:28 | 45.95202 | 9.03976 | 34330 ft | 463 kts | 128° |
| 2026-05-05 18:29 | 45.93588 | 9.07934 | 33721 ft | 462 kts | 128° |
| 2026-05-05 18:29 | 45.91962 | 9.11906 | 33120 ft | 461 kts | 128° |
| 2026-05-05 18:29 | 45.90341 | 9.15852 | 32444 ft | 462 kts | 128° |
| 2026-05-05 18:29 | 45.88702 | 9.19840 | 31734 ft | 464 kts | 128° |
| 2026-05-05 18:30 | 45.87053 | 9.23843 | 30988 ft | 466 kts | 128° |
| 2026-05-05 18:30 | 45.85410 | 9.27829 | 30243 ft | 468 kts | 128° |
| 2026-05-05 18:30 | 45.83751 | 9.31854 | 29482 ft | 470 kts | 127° |
| 2026-05-05 18:30 | 45.82082 | 9.35894 | 28729 ft | 470 kts | 127° |
| 2026-05-05 18:31 | 45.80430 | 9.39889 | 28075 ft | 468 kts | 127° |
| 2026-05-05 18:31 | 45.78782 | 9.43885 | 27626 ft | 461 kts | 126° |
| 2026-05-05 18:31 | 45.77151 | 9.47829 | 27130 ft | 456 kts | 126° |
| 2026-05-05 18:31 | 45.75546 | 9.51701 | 26592 ft | 452 kts | 126° |
| 2026-05-05 18:32 | 45.73956 | 9.55529 | 26089 ft | 447 kts | 126° |
| 2026-05-05 18:32 | 45.72393 | 9.59288 | 25558 ft | 443 kts | 126° |
| 2026-05-05 18:32 | 45.70812 | 9.63079 | 24983 ft | 439 kts | 126° |
| 2026-05-05 18:32 | 45.69265 | 9.66789 | 24469 ft | 435 kts | 126° |
| 2026-05-05 18:33 | 45.67708 | 9.70509 | 23933 ft | 430 kts | 126° |
| 2026-05-05 18:33 | 45.66188 | 9.74444 | 23349 ft | 431 kts | 119° |
| 2026-05-05 18:33 | 45.65249 | 9.78572 | 22777 ft | 435 kts | 106° |
| 2026-05-05 18:33 | 45.64916 | 9.82900 | 22239 ft | 437 kts | 95° |
| 2026-05-05 18:34 | 45.64895 | 9.87264 | 21721 ft | 434 kts | 93° |
| 2026-05-05 18:34 | 45.64928 | 9.91538 | 21216 ft | 431 kts | 93° |
| 2026-05-05 18:34 | 45.64951 | 9.95802 | 20715 ft | 428 kts | 93° |
| 2026-05-05 18:34 | 45.64957 | 10.00028 | 20235 ft | 424 kts | 94° |
| 2026-05-05 18:35 | 45.64950 | 10.04225 | 19742 ft | 420 kts | 94° |
| 2026-05-05 18:35 | 45.64933 | 10.08473 | 19263 ft | 417 kts | 94° |
| 2026-05-05 18:35 | 45.64914 | 10.12606 | 18767 ft | 414 kts | 94° |
| 2026-05-05 18:35 | 45.64905 | 10.16658 | 18276 ft | 411 kts | 93° |
| 2026-05-05 18:36 | 45.64898 | 10.20722 | 17841 ft | 407 kts | 93° |
| 2026-05-05 18:36 | 45.64890 | 10.24756 | 17362 ft | 404 kts | 93° |
| 2026-05-05 18:36 | 45.64879 | 10.28721 | 16933 ft | 401 kts | 93° |
| 2026-05-05 18:36 | 45.64816 | 10.32696 | 16401 ft | 397 kts | 99° |
| 2026-05-05 18:37 | 45.64035 | 10.36342 | 15924 ft | 384 kts | 123° |
| 2026-05-05 18:37 | 45.62312 | 10.39130 | 15436 ft | 368 kts | 148° |
| 2026-05-05 18:37 | 45.60084 | 10.40646 | 14960 ft | 355 kts | 169° |
| 2026-05-05 18:37 | 45.57648 | 10.40941 | 14454 ft | 346 kts | 188° |
| 2026-05-05 18:38 | 45.55296 | 10.40430 | 13979 ft | 344 kts | 192° |
| 2026-05-05 18:38 | 45.52938 | 10.39897 | 13470 ft | 343 kts | 191° |
| 2026-05-05 18:38 | 45.50570 | 10.39384 | 12985 ft | 342 kts | 191° |
| 2026-05-05 18:38 | 45.48246 | 10.38897 | 12542 ft | 340 kts | 190° |
| 2026-05-05 18:39 | 45.45901 | 10.38415 | 12094 ft | 338 kts | 190° |
| 2026-05-05 18:39 | 45.43610 | 10.37950 | 11673 ft | 335 kts | 190° |
| 2026-05-05 18:39 | 45.41323 | 10.37490 | 11476 ft | 325 kts | 190° |
| 2026-05-05 18:39 | 45.39122 | 10.37052 | 11296 ft | 315 kts | 190° |
| 2026-05-05 18:40 | 45.36982 | 10.36624 | 11120 ft | 306 kts | 190° |
| 2026-05-05 18:40 | 45.34897 | 10.36208 | 10968 ft | 296 kts | 190° |
| 2026-05-05 18:40 | 45.32907 | 10.35812 | 10952 ft | 281 kts | 190° |
| 2026-05-05 18:40 | 45.30980 | 10.35428 | 10953 ft | 279 kts | 190° |
| 2026-05-05 18:41 | 45.29071 | 10.35044 | 10953 ft | 279 kts | 191° |
| 2026-05-05 18:41 | 45.27155 | 10.34660 | 10953 ft | 279 kts | 190° |
| 2026-05-05 18:41 | 45.25222 | 10.34647 | 10928 ft | 285 kts | 168° |
| 2026-05-05 18:41 | 45.23489 | 10.36027 | 10947 ft | 295 kts | 140° |
| 2026-05-05 18:42 | 45.22125 | 10.38257 | 10966 ft | 299 kts | 131° |
| 2026-05-05 18:42 | 45.20855 | 10.40586 | 10950 ft | 299 kts | 131° |
| 2026-05-05 18:42 | 45.19553 | 10.42878 | 10904 ft | 293 kts | 133° |
| 2026-05-05 18:42 | 45.18254 | 10.45060 | 10365 ft | 291 kts | 134° |
| 2026-05-05 18:43 | 45.16936 | 10.47201 | 9712 ft | 291 kts | 135° |
| 2026-05-05 18:43 | 45.15605 | 10.49351 | 9104 ft | 289 kts | 132° |
| 2026-05-05 18:43 | 45.14677 | 10.51821 | 8447 ft | 296 kts | 103° |
| 2026-05-05 18:43 | 45.14786 | 10.54696 | 7819 ft | 298 kts | 70° |
| 2026-05-05 18:44 | 45.15948 | 10.57074 | 7205 ft | 295 kts | 37° |
| 2026-05-05 18:44 | 45.17665 | 10.58548 | 6636 ft | 289 kts | 28° |
| 2026-05-05 18:44 | 45.19360 | 10.60091 | 6024 ft | 287 kts | 36° |
| 2026-05-05 18:44 | 45.20880 | 10.61856 | 5470 ft | 283 kts | 41° |
| 2026-05-05 18:45 | 45.22301 | 10.63715 | 4929 ft | 278 kts | 44° |
| 2026-05-05 18:45 | 45.23653 | 10.65615 | 4546 ft | 267 kts | 46° |
| 2026-05-05 18:45 | 45.24933 | 10.67478 | 4110 ft | 260 kts | 46° |
| 2026-05-05 18:45 | 45.26187 | 10.69322 | 3690 ft | 256 kts | 46° |
| 2026-05-05 18:46 | 45.27401 | 10.71105 | 3354 ft | 253 kts | 46° |
| 2026-05-05 18:46 | 45.28632 | 10.72908 | 3013 ft | 248 kts | 46° |
| 2026-05-05 18:46 | 45.29800 | 10.74613 | 2683 ft | 236 kts | 47° |
| 2026-05-05 18:46 | 45.30922 | 10.76251 | 2377 ft | 228 kts | 47° |
| 2026-05-05 18:47 | 45.32010 | 10.77837 | 2081 ft | 220 kts | 46° |
| 2026-05-05 18:47 | 45.33024 | 10.79317 | 1862 ft | 203 kts | 46° |
| 2026-05-05 18:47 | 45.33968 | 10.80693 | 1651 ft | 187 kts | 46° |
| 2026-05-05 18:47 | 45.34843 | 10.81969 | 1356 ft | 175 kts | 46° |
| 2026-05-05 18:48 | 45.35667 | 10.83169 | 1090 ft | 161 kts | 46° |
| 2026-05-05 18:48 | 45.36410 | 10.84251 | 868 ft | 147 kts | 46° |
| 2026-05-05 18:48 | 45.37118 | 10.85282 | 696 ft | 145 kts | 46° |
| 2026-05-05 18:48 | 45.37824 | 10.86313 | 502 ft | 145 kts | 46° |
| 2026-05-05 18:49 | 45.38528 | 10.87335 | 318 ft | 145 kts | 46° |
| 2026-05-05 18:49 | 45.39226 | 10.88354 | 225 ft | 144 kts | 46° |
| 2026-05-05 18:49 | 45.39863 | 10.89279 | 231 ft | 107 kts | 45° |
| 2026-05-05 18:49 | 45.40238 | 10.89829 | 231 ft | 41 kts | 50° |
| 2026-05-05 18:50 | 45.40296 | 10.90029 | 229 ft | 14 kts | 76° |
| 2026-05-05 18:50 | 45.40320 | 10.90166 | 229 ft | 14 kts | 76° |
| 2026-05-05 18:50 | 45.40324 | 10.90295 | 232 ft | 12 kts | 127° |
| 2026-05-05 18:50 | 45.40263 | 10.90381 | 231 ft | 10 kts | 136° |
| 2026-05-05 18:51 | 45.40210 | 10.90414 | 230 ft | 9 kts | 178° |
| 2026-05-05 18:51 | 45.40179 | 10.90414 | 230 ft | 0 kts | 181° |